Time;durP1;ratioP1;P1;durP2;ratioP2;P2;SDS_P1;SDS_P2;PMS_P1;PMS_P2;Temp;Humidity;BMP_temperature;BMP_pressure;BME280_temperature;BME280_humidity;BME280_pressure;Samples;Min_cycle;Max_cycle;Signal;HPM_P1;HPM_P2
2022/08/25 00:00:44;;;;;;;19.42;13.65;;;19.50;99.90;;;;;;5069809;28;20040;-73
2022/08/25 00:03:14;;;;;;;17.00;15.27;;;19.50;99.90;;;;;;5071761;28;20432;-71
2022/08/25 00:05:39;;;;;;;19.15;14.73;;;19.50;99.90;;;;;;5071583;28;20075;-72
2022/08/25 00:08:06;;;;;;;21.13;13.70;;;19.40;99.90;;;;;;5053205;28;20510;-72
2022/08/25 00:10:34;;;;;;;18.27;13.63;;;19.40;99.90;;;;;;5069550;28;20048;-71
2022/08/25 00:13:01;;;;;;;12.90;11.50;;;19.30;99.90;;;;;;5071191;28;20048;-72
2022/08/25 00:15:30;;;;;;;16.02;10.65;;;19.50;99.90;;;;;;5071604;28;20396;-73
2022/08/25 00:17:56;;;;;;;12.52;10.40;;;19.30;99.90;;;;;;5069860;28;20044;-72
2022/08/25 00:20:24;;;;;;;14.15;9.45;;;19.40;99.90;;;;;;5071373;28;20538;-72
2022/08/25 00:22:50;;;;;;;13.80;9.70;;;19.40;99.90;;;;;;5053658;28;20127;-74
2022/08/25 00:25:16;;;;;;;13.00;9.63;;;19.40;99.90;;;;;;5053216;28;20060;-72
2022/08/25 00:27:42;;;;;;;15.82;8.60;;;19.40;99.90;;;;;;5069202;28;20037;-74
2022/08/25 00:30:09;;;;;;;11.85;7.70;;;19.40;99.90;;;;;;5071284;28;20048;-71
2022/08/25 00:32:35;;;;;;;14.57;7.60;;;19.50;99.90;;;;;;5071218;28;20070;-72
2022/08/25 00:35:03;;;;;;;10.98;7.05;;;19.50;99.90;;;;;;5053241;28;20044;-74
2022/08/25 00:37:28;;;;;;;24.33;7.10;;;19.50;99.90;;;;;;5071051;28;20056;-72
2022/08/25 00:39:55;;;;;;;10.10;6.63;;;19.50;99.90;;;;;;5069477;28;20406;-72
2022/08/25 00:42:22;;;;;;;12.93;6.82;;;19.60;99.90;;;;;;5052730;28;20052;-72
2022/08/25 00:44:48;;;;;;;8.88;6.28;;;19.60;99.90;;;;;;5070780;28;20495;-72
2022/08/25 00:47:14;;;;;;;13.90;7.18;;;19.60;99.90;;;;;;5069201;28;20051;-72
2022/08/25 00:49:44;;;;;;;14.15;6.22;;;19.60;99.90;;;;;;5070866;28;20041;-72
2022/08/25 00:52:10;;;;;;;8.73;5.95;;;19.70;99.90;;;;;;5070519;28;20143;-72
2022/08/25 00:54:41;;;;;;;7.88;6.07;;;19.70;99.90;;;;;;5053016;28;20132;-71
2022/08/25 00:57:09;;;;;;;11.82;6.63;;;19.70;99.90;;;;;;5069086;28;20037;-76
2022/08/25 00:59:35;;;;;;;9.18;5.47;;;19.70;99.90;;;;;;5052581;28;20088;-75
2022/08/25 01:02:03;;;;;;;11.82;5.35;;;19.80;99.90;;;;;;5050926;28;20067;-71
2022/08/25 01:04:29;;;;;;;11.93;5.18;;;19.80;99.90;;;;;;5050419;28;20064;-71
2022/08/25 01:06:56;;;;;;;8.95;5.53;;;19.80;99.90;;;;;;5033782;28;20396;-71
2022/08/25 01:09:22;;;;;;;9.40;5.30;;;19.80;99.90;;;;;;5051814;28;20032;-72
2022/08/25 01:11:48;;;;;;;7.55;4.97;;;19.80;99.90;;;;;;5032549;28;20488;-72
2022/08/25 01:14:17;;;;;;;7.80;5.32;;;19.90;99.90;;;;;;5050063;28;20153;-72
2022/08/25 01:16:43;;;;;;;10.65;5.30;;;19.90;99.90;;;;;;5051590;28;20036;-71
2022/08/25 01:19:11;;;;;;;10.18;5.25;;;19.90;99.90;;;;;;5050318;28;20403;-75
2022/08/25 01:21:49;;;;;;;15.00;5.28;;;19.90;99.90;;;;;;5050524;28;20396;-71
2022/08/25 01:24:35;;;;;;;9.93;5.07;;;19.90;99.90;;;;;;5050371;28;20063;-72
2022/08/25 01:27:01;;;;;;;11.25;5.22;;;19.90;99.90;;;;;;5051383;28;20049;-71
2022/08/25 01:29:29;;;;;;;8.90;4.53;;;19.80;99.90;;;;;;5050001;28;20389;-72
2022/08/25 01:31:58;;;;;;;10.52;5.00;;;19.80;99.90;;;;;;5050357;28;20443;-71
2022/08/25 01:34:31;;;;;;;12.18;5.65;;;19.80;99.90;;;;;;5050251;28;20045;-73
2022/08/25 01:36:58;;;;;;;11.98;6.03;;;19.90;99.90;;;;;;5051346;28;20036;-72
2022/08/25 01:39:26;;;;;;;10.27;4.63;;;19.80;99.90;;;;;;5050303;28;20044;-73
2022/08/25 01:42:05;;;;;;;8.32;4.60;;;19.80;99.90;;;;;;5050138;28;20084;-71
2022/08/25 01:44:34;;;;;;;11.88;4.60;;;19.80;99.90;;;;;;5050088;28;20052;-72
2022/08/25 01:47:00;;;;;;;9.32;4.25;;;19.80;99.90;;;;;;5049672;28;20052;-71
2022/08/25 01:49:26;;;;;;;6.82;4.15;;;19.80;99.90;;;;;;5050984;28;20079;-72
2022/08/25 01:51:58;;;;;;;10.40;4.32;;;19.80;99.90;;;;;;5049723;28;20088;-71
2022/08/25 01:54:24;;;;;;;9.30;4.38;;;19.80;99.90;;;;;;5050150;28;20131;-72
2022/08/25 01:56:50;;;;;;;6.78;4.13;;;19.80;99.90;;;;;;5050043;28;20073;-71
2022/08/25 01:59:17;;;;;;;8.93;3.95;;;19.80;99.90;;;;;;5051050;28;20045;-71
2022/08/25 02:01:43;;;;;;;6.25;4.05;;;19.90;99.90;;;;;;5062029;28;20045;-72
2022/08/25 02:04:08;;;;;;;8.35;4.10;;;19.80;99.90;;;;;;5069739;28;20062;-69
2022/08/25 02:06:34;;;;;;;8.32;3.78;;;19.70;99.90;;;;;;5069802;28;20594;-72
2022/08/25 02:09:08;;;;;;;7.80;4.25;;;19.70;99.90;;;;;;5065678;28;20064;-71
2022/08/25 02:11:36;;;;;;;10.55;4.07;;;19.70;99.90;;;;;;5055218;28;20055;-73
2022/08/25 02:14:02;;;;;;;8.07;3.70;;;19.70;99.90;;;;;;5039677;28;20060;-72
2022/08/25 02:16:31;;;;;;;12.50;4.15;;;19.60;99.90;;;;;;5055920;28;20420;-72
2022/08/25 02:18:58;;;;;;;9.38;4.40;;;19.60;99.90;;;;;;5057359;28;20559;-72
2022/08/25 02:21:24;;;;;;;10.02;3.88;;;19.60;99.90;;;;;;5073438;28;20044;-73
2022/08/25 02:23:50;;;;;;;6.28;3.38;;;19.60;99.90;;;;;;5076280;28;20039;-71
2022/08/25 02:26:17;;;;;;;11.68;4.97;;;19.60;99.90;;;;;;5086236;28;20055;-71
2022/08/25 02:28:47;;;;;;;5.68;3.70;;;19.60;99.90;;;;;;5076480;28;20376;-72
2022/08/25 02:31:15;;;;;;;8.55;3.80;;;19.60;99.90;;;;;;5057064;28;20063;-72
2022/08/25 02:33:40;;;;;;;7.35;3.70;;;19.50;99.90;;;;;;5055608;28;20120;-71
2022/08/25 02:36:06;;;;;;;5.72;3.47;;;19.50;99.90;;;;;;5037969;28;20135;-72
2022/08/25 02:38:32;;;;;;;7.03;3.65;;;19.50;99.90;;;;;;5038483;28;20147;-72
2022/08/25 02:40:59;;;;;;;6.90;3.65;;;19.50;99.90;;;;;;5076673;28;20127;-72
2022/08/25 02:43:26;;;;;;;8.20;3.90;;;19.50;99.90;;;;;;5096512;28;20036;-71
2022/08/25 02:45:53;;;;;;;7.28;3.80;;;19.30;99.90;;;;;;5084730;28;20052;-71
2022/08/25 02:48:18;;;;;;;7.25;3.65;;;19.50;99.90;;;;;;5057636;28;20817;-71
2022/08/25 02:50:51;;;;;;;12.18;4.03;;;19.40;99.90;;;;;;5075889;28;20095;-72
2022/08/25 02:53:18;;;;;;;13.40;4.00;;;19.50;99.90;;;;;;5075921;28;20386;-72
2022/08/25 02:55:44;;;;;;;10.07;4.45;;;19.40;99.90;;;;;;5075929;28;20086;-71
2022/08/25 02:58:09;;;;;;;10.88;4.45;;;19.40;99.90;;;;;;5088398;28;20127;-72
2022/08/25 03:00:36;;;;;;;9.00;5.43;;;19.40;99.90;;;;;;5064339;28;20053;-71
2022/08/25 03:03:01;;;;;;;8.40;4.13;;;19.40;99.90;;;;;;5069750;28;20045;-71
2022/08/25 03:05:27;;;;;;;8.93;5.18;;;19.40;99.90;;;;;;5055344;28;20056;-71
2022/08/25 03:07:53;;;;;;;12.05;4.78;;;19.30;99.90;;;;;;5055863;28;20079;-73
2022/08/25 03:10:19;;;;;;;8.85;4.70;;;19.30;99.90;;;;;;5071396;28;20086;-71
2022/08/25 03:12:46;;;;;;;10.35;5.00;;;19.30;99.90;;;;;;5052845;28;20052;-71
2022/08/25 03:15:17;;;;;;;9.30;5.50;;;19.30;99.90;;;;;;5093979;28;20093;-72
2022/08/25 03:17:44;;;;;;;9.70;5.53;;;19.20;99.90;;;;;;5095977;28;20123;-71
2022/08/25 03:20:09;;;;;;;12.00;5.65;;;19.20;99.90;;;;;;5095802;28;20104;-72
2022/08/25 03:22:35;;;;;;;11.50;5.32;;;19.30;99.90;;;;;;5092568;28;20040;-70
2022/08/25 03:27:48;;;;;;;11.82;5.45;;;19.20;99.90;;;;;;5052436;28;20057;-71
2022/08/25 03:30:14;;;;;;;10.80;5.68;;;19.20;99.90;;;;;;5052125;28;20131;-71
2022/08/25 03:32:41;;;;;;;10.85;5.90;;;19.30;99.90;;;;;;5052314;28;20709;-71
2022/08/25 03:35:08;;;;;;;13.82;5.63;;;19.10;99.90;;;;;;5052827;28;20087;-72
2022/08/25 03:37:34;;;;;;;10.82;5.75;;;19.10;99.90;;;;;;5052167;28;20496;-73
2022/08/25 03:40:01;;;;;;;12.23;5.15;;;19.10;99.90;;;;;;5057260;28;20056;-72
2022/08/25 03:42:27;;;;;;;8.23;5.07;;;19.10;99.90;;;;;;5083262;28;20039;-70
2022/08/25 03:44:53;;;;;;;10.80;5.45;;;19.10;99.90;;;;;;5052878;28;20032;-71
2022/08/25 03:47:19;;;;;;;9.35;4.90;;;19.10;99.90;;;;;;5034227;28;20122;-71
2022/08/25 03:49:45;;;;;;;9.88;5.00;;;19.00;99.90;;;;;;5034081;28;20552;-71
2022/08/25 03:52:11;;;;;;;7.40;4.90;;;19.00;99.90;;;;;;5069083;28;20415;-73
2022/08/25 03:54:37;;;;;;;11.25;5.10;;;19.00;99.90;;;;;;5070353;28;20099;-72
2022/08/25 03:57:02;;;;;;;8.57;4.75;;;18.90;99.90;;;;;;5054144;28;20044;-71
2022/08/25 03:59:28;;;;;;;8.15;4.85;;;18.90;99.90;;;;;;5053946;28;20048;-71
2022/08/25 04:01:54;;;;;;;10.18;4.43;;;18.90;99.90;;;;;;5071732;28;20033;-70
2022/08/25 04:04:19;;;;;;;7.53;4.13;;;18.90;99.90;;;;;;5071445;28;20044;-71
2022/08/25 04:06:46;;;;;;;10.68;4.38;;;18.90;99.90;;;;;;5075593;28;20079;-73
2022/08/25 04:09:12;;;;;;;15.57;5.10;;;18.90;99.90;;;;;;5071288;28;20064;-71
2022/08/25 04:11:37;;;;;;;8.55;4.80;;;18.80;99.90;;;;;;5071241;28;20127;-71
2022/08/25 04:14:04;;;;;;;7.15;4.30;;;18.70;99.90;;;;;;5054525;28;20490;-71
2022/08/25 04:16:33;;;;;;;9.23;4.32;;;18.80;99.90;;;;;;5059406;28;20032;-74
2022/08/25 04:19:01;;;;;;;7.07;4.43;;;18.80;99.90;;;;;;5091544;28;20040;-71
2022/08/25 04:21:27;;;;;;;6.78;4.03;;;18.80;99.90;;;;;;5091554;28;20557;-71
2022/08/25 04:23:55;;;;;;;16.70;4.35;;;18.70;99.90;;;;;;5046928;28;20052;-71
2022/08/25 04:26:33;;;;;;;12.32;4.38;;;18.90;99.90;;;;;;5052179;28;20571;-71
2022/08/25 04:29:01;;;;;;;9.52;3.85;;;18.70;99.90;;;;;;5047904;28;20099;-73
2022/08/25 04:31:28;;;;;;;8.68;3.85;;;18.70;99.90;;;;;;5090630;28;20135;-71
2022/08/25 04:33:54;;;;;;;10.23;4.28;;;18.70;99.90;;;;;;5074375;28;20045;-70
2022/08/25 04:36:20;;;;;;;7.90;3.95;;;18.60;99.90;;;;;;5053119;28;20048;-71
2022/08/25 04:38:48;;;;;;;11.25;4.20;;;18.60;99.90;;;;;;5068646;28;20064;-72
2022/08/25 04:41:18;;;;;;;9.50;4.18;;;18.60;99.90;;;;;;5070867;28;20052;-72
2022/08/25 04:43:44;;;;;;;14.63;3.92;;;18.50;99.90;;;;;;5070490;28;20089;-72
2022/08/25 04:46:22;;;;;;;9.52;4.05;;;18.70;99.90;;;;;;5070947;28;20052;-72
2022/08/25 04:48:50;;;;;;;7.15;4.38;;;18.60;99.90;;;;;;5071423;28;20479;-72
2022/08/25 04:51:18;;;;;;;6.15;4.07;;;18.60;99.90;;;;;;5090931;28;20131;-71
2022/08/25 04:53:44;;;;;;;9.50;4.10;;;18.60;99.90;;;;;;5090421;28;20059;-73
2022/08/25 04:56:12;;;;;;;9.45;4.53;;;18.50;99.90;;;;;;5090716;28;20403;-71
2022/08/25 04:58:39;;;;;;;6.45;4.35;;;18.60;99.90;;;;;;5064435;28;20041;-72
2022/08/25 05:01:09;;;;;;;6.50;4.03;;;18.50;99.90;;;;;;5091015;28;20093;-72
2022/08/25 05:03:35;;;;;;;8.13;4.00;;;18.60;99.90;;;;;;5090773;28;20151;-72
2022/08/25 05:06:01;;;;;;;10.25;4.82;;;18.60;99.90;;;;;;5079240;28;20179;-72
2022/08/25 05:08:27;;;;;;;9.63;4.70;;;18.60;99.90;;;;;;5050509;28;20083;-71
2022/08/25 05:10:55;;;;;;;11.95;4.70;;;18.60;99.90;;;;;;5033601;28;20056;-72
2022/08/25 05:13:25;;;;;;;12.07;4.95;;;18.60;99.90;;;;;;5051946;28;20056;-70
2022/08/25 05:15:56;;;;;;;10.23;4.70;;;18.70;99.90;;;;;;5032580;28;20053;-70
2022/08/25 05:18:24;;;;;;;12.10;6.63;;;18.60;99.90;;;;;;5050572;28;20400;-75
2022/08/25 05:20:52;;;;;;;7.50;5.00;;;18.60;99.90;;;;;;5051554;28;20098;-72
2022/08/25 05:23:19;;;;;;;9.63;5.18;;;18.60;99.90;;;;;;5060085;28;20044;-71
2022/08/25 05:25:45;;;;;;;11.05;5.25;;;18.70;99.90;;;;;;5069548;28;20510;-72
2022/08/25 05:28:10;;;;;;;8.25;5.47;;;18.70;99.90;;;;;;5070238;28;20040;-73
2022/08/25 05:30:38;;;;;;;8.07;5.10;;;18.80;99.90;;;;;;5065412;28;20040;-74
2022/08/25 05:33:05;;;;;;;10.73;5.43;;;18.70;99.90;;;;;;5069897;28;20036;-72
2022/08/25 05:35:30;;;;;;;8.27;5.15;;;18.80;99.90;;;;;;5069968;28;20101;-72
2022/08/25 05:37:56;;;;;;;10.90;4.93;;;18.80;99.90;;;;;;5051941;28;20062;-72
2022/08/25 05:40:23;;;;;;;8.60;5.00;;;18.80;99.90;;;;;;5068389;28;20060;-72
2022/08/25 05:42:49;;;;;;;10.52;5.45;;;18.90;99.90;;;;;;5068770;28;20484;-75
2022/08/25 05:45:15;;;;;;;10.05;4.90;;;18.90;99.90;;;;;;5050944;28;20465;-71
2022/08/25 05:47:41;;;;;;;11.00;5.20;;;18.90;99.90;;;;;;5069323;28;20127;-71
2022/08/25 05:50:08;;;;;;;9.55;4.80;;;18.90;99.90;;;;;;5052054;28;20520;-72
2022/08/25 05:52:33;;;;;;;12.15;5.28;;;19.00;99.90;;;;;;5049652;28;20134;-72
2022/08/25 05:54:59;;;;;;;12.20;4.20;;;19.00;99.90;;;;;;5051614;28;20390;-72
2022/08/25 05:57:25;;;;;;;12.02;4.60;;;19.00;99.90;;;;;;5069643;28;20044;-72
2022/08/25 05:59:50;;;;;;;10.07;5.10;;;19.10;99.90;;;;;;5069840;28;20132;-71
2022/08/25 06:05:00;;;;;;;9.05;4.60;;;19.20;99.90;;;;;;5045993;28;20679;-71
2022/08/25 06:07:25;;;;;;;11.02;4.55;;;19.30;99.90;;;;;;5031912;28;20060;-72
2022/08/25 06:09:51;;;;;;;7.60;4.10;;;19.30;99.90;;;;;;5049450;28;20037;-71
2022/08/25 06:12:17;;;;;;;9.20;4.00;;;19.40;99.90;;;;;;5049386;28;20705;-72
2022/08/25 06:14:43;;;;;;;6.88;4.00;;;19.60;99.90;;;;;;5062446;28;20403;-72
2022/08/25 06:17:09;;;;;;;8.10;4.57;;;19.50;99.90;;;;;;5067557;28;20037;-71
2022/08/25 06:19:35;;;;;;;8.80;4.35;;;19.60;99.90;;;;;;5051116;28;20076;-71
2022/08/25 06:22:01;;;;;;;7.70;3.78;;;19.60;99.90;;;;;;5069435;28;20048;-75
2022/08/25 06:24:27;;;;;;;8.30;3.65;;;19.70;99.90;;;;;;5051636;28;20765;-71
2022/08/25 06:26:53;;;;;;;14.07;3.90;;;19.70;99.90;;;;;;5067523;28;20044;-70
2022/08/25 06:29:19;;;;;;;9.65;3.80;;;19.80;99.90;;;;;;5069090;28;20508;-70
2022/08/25 06:31:45;;;;;;;8.18;3.90;;;20.00;99.90;;;;;;5069543;28;20139;-72
2022/08/25 06:34:12;;;;;;;10.65;3.70;;;19.90;99.90;;;;;;5068831;28;20124;-71
2022/08/25 06:36:38;;;;;;;7.97;3.42;;;19.90;99.90;;;;;;5067547;28;20075;-71
2022/08/25 06:39:04;;;;;;;6.25;3.80;;;20.10;99.90;;;;;;5068895;28;20047;-72
2022/08/25 06:41:30;;;;;;;6.53;4.03;;;20.10;99.90;;;;;;5051168;28;20135;-73
2022/08/25 06:43:56;;;;;;;7.72;4.43;;;20.20;99.90;;;;;;5077658;28;20376;-72
2022/08/25 06:46:25;;;;;;;12.82;4.28;;;20.30;99.90;;;;;;5071077;28;20505;-71
2022/08/25 06:48:53;;;;;;;10.50;4.00;;;20.40;99.90;;;;;;5051418;28;20083;-72
2022/08/25 06:51:20;;;;;;;6.00;3.53;;;20.40;99.90;;;;;;5048780;28;20053;-72
2022/08/25 06:53:48;;;;;;;10.32;3.95;;;20.50;99.90;;;;;;5031280;28;20057;-72
2022/08/25 06:56:15;;;;;;;6.50;3.55;;;20.50;99.90;;;;;;5049506;28;20052;-72
2022/08/25 06:58:41;;;;;;;8.23;3.83;;;20.70;99.90;;;;;;5035635;28;20057;-72
2022/08/25 07:01:12;;;;;;;10.00;4.30;;;20.70;99.90;;;;;;5061217;28;20447;-72
2022/08/25 07:03:37;;;;;;;8.38;3.65;;;20.80;99.90;;;;;;5072724;28;20452;-71
2022/08/25 07:06:04;;;;;;;7.25;3.92;;;20.90;99.90;;;;;;5054615;28;20089;-72
2022/08/25 07:08:30;;;;;;;7.38;3.85;;;21.00;99.90;;;;;;5067956;28;20471;-74
2022/08/25 07:10:56;;;;;;;8.55;4.00;;;21.10;99.90;;;;;;5069505;28;20079;-71
2022/08/25 07:13:22;;;;;;;5.60;3.50;;;21.20;99.90;;;;;;5082771;28;20044;-75
2022/08/25 07:15:53;;;;;;;7.93;3.75;;;21.30;99.90;;;;;;5090764;28;20070;-72
2022/08/25 07:18:18;;;;;;;22.92;3.92;;;21.40;99.90;;;;;;5072607;28;20098;-70
2022/08/25 07:20:44;;;;;;;10.73;3.92;;;21.50;99.90;;;;;;5072769;28;20044;-72
2022/08/25 07:23:10;;;;;;;7.47;4.10;;;21.60;99.90;;;;;;5072542;28;20059;-72
2022/08/25 07:25:36;;;;;;;10.15;4.30;;;21.60;99.90;;;;;;5072186;28;20052;-74
2022/08/25 07:28:03;;;;;;;7.05;4.05;;;21.80;99.90;;;;;;5074478;28;20116;-74
2022/08/25 07:30:29;;;;;;;9.73;4.00;;;21.90;99.90;;;;;;5064623;28;20052;-81
2022/08/25 07:32:55;;;;;;;11.02;5.18;;;22.10;99.90;;;;;;5034776;28;20428;-78
2022/08/25 07:35:23;;;;;;;7.93;4.00;;;22.10;99.90;;;;;;5054583;28;20045;-70
2022/08/25 07:37:52;;;;;;;15.00;4.07;;;22.20;99.90;;;;;;5074598;28;20392;-71
2022/08/25 07:40:24;;;;;;;11.35;4.35;;;22.30;99.90;;;;;;5092443;28;20517;-73
2022/08/25 07:42:55;;;;;;;8.45;3.90;;;22.40;99.90;;;;;;5078857;28;20048;-73
2022/08/25 07:45:28;;;;;;;12.57;4.22;;;22.50;99.90;;;;;;5071509;28;20052;-72
2022/08/25 07:47:54;;;;;;;7.80;4.38;;;22.70;99.90;;;;;;5051904;28;20044;-75
2022/08/25 07:50:20;;;;;;;6.72;4.03;;;22.80;99.90;;;;;;5051991;28;20043;-72
2022/08/25 07:52:46;;;;;;;6.72;4.05;;;22.90;99.90;;;;;;5033757;28;20140;-71
2022/08/25 07:55:12;;;;;;;8.73;4.70;;;23.10;99.90;;;;;;5055719;28;20052;-73
2022/08/25 07:57:40;;;;;;;7.28;3.75;;;23.20;99.90;;;;;;5067286;28;20160;-75
2022/08/25 08:00:09;;;;;;;16.95;4.32;;;23.40;99.90;;;;;;5092141;28;20056;-75
2022/08/25 08:02:37;;;;;;;11.15;4.07;;;23.50;99.90;;;;;;5077491;28;20040;-74
2022/08/25 08:05:03;;;;;;;7.72;3.90;;;23.70;99.90;;;;;;5087812;28;20371;-70
2022/08/25 08:07:30;;;;;;;10.85;4.03;;;23.90;99.90;;;;;;5091927;28;20047;-70
2022/08/25 08:09:57;;;;;;;10.23;3.67;;;24.10;99.90;;;;;;5073212;28;20123;-70
2022/08/25 08:12:23;;;;;;;11.38;3.50;;;24.30;99.90;;;;;;5091800;28;20074;-72
2022/08/25 08:14:50;;;;;;;13.05;4.03;;;24.50;99.90;;;;;;5077324;28;20424;-72
2022/08/25 08:17:16;;;;;;;8.88;3.90;;;24.80;99.90;;;;;;5072306;28;20050;-85
2022/08/25 08:19:42;;;;;;;9.38;3.35;;;25.10;99.90;;;;;;5073407;28;20509;-76
2022/08/25 08:22:10;;;;;;;7.13;3.40;;;25.30;99.90;;;;;;5073482;28;20055;-72
2022/08/25 08:24:38;;;;;;;7.03;3.15;;;25.60;99.90;;;;;;5073564;28;20052;-73
2022/08/25 08:27:07;;;;;;;8.85;3.45;;;25.80;99.90;;;;;;5091576;28;20130;-72
2022/08/25 08:29:34;;;;;;;11.07;4.15;;;26.10;99.90;;;;;;5091471;28;20040;-75
2022/08/25 08:32:02;;;;;;;7.15;4.25;;;26.20;99.90;;;;;;5091462;28;20056;-72
2022/08/25 08:34:28;;;;;;;18.10;3.95;;;26.40;99.90;;;;;;5091094;28;20491;-72
2022/08/25 08:36:54;;;;;;;9.05;3.13;;;26.50;99.90;;;;;;5091190;28;20094;-72
2022/08/25 08:39:20;;;;;;;9.50;3.55;;;26.80;99.90;;;;;;5091294;28;20487;-73
2022/08/25 08:42:15;;;;;;;8.27;3.05;;;27.10;99.90;;;;;;5091250;28;20051;-73
2022/08/25 08:44:46;;;;;;;;;;;27.30;99.90;;;;;;5073638;28;20079;-78
2022/08/25 08:47:25;;;;;;;13.63;2.70;;;27.40;99.90;;;;;;5091249;28;20320;-69
2022/08/25 08:50:05;;;;;;;8.80;3.30;;;27.60;99.90;;;;;;5090937;28;20071;-72
2022/08/25 08:52:54;;;;;;;4.93;2.85;;;27.80;99.90;;;;;;5072730;28;20094;-72
2022/08/25 08:55:35;;;;;;;10.65;3.47;;;27.90;99.60;;;;;;4988999;28;20054;-73
2022/08/25 08:58:06;;;;;;;8.45;3.35;;;28.00;99.10;;;;;;4989185;28;20129;-72
2022/08/25 09:00:39;;;;;;;6.45;3.03;;;28.10;99.20;;;;;;4989182;28;20218;-71
2022/08/25 09:03:08;;;;;;;8.18;2.63;;;28.20;98.80;;;;;;4989004;28;20126;-72
2022/08/25 09:05:49;;;;;;;5.05;2.95;;;28.40;98.40;;;;;;4988433;28;20438;-72
2022/08/25 09:08:16;;;;;;;4.20;2.47;;;28.50;98.20;;;;;;4988709;28;20060;-73
2022/08/25 09:10:57;;;;;;;7.38;2.60;;;28.60;98.10;;;;;;4988636;28;20078;-74
2022/08/25 09:13:31;;;;;;;8.80;2.75;;;28.70;96.60;;;;;;4988609;28;20058;-73
2022/08/25 09:16:53;;;;;;;4.32;2.58;;;28.90;97.00;;;;;;4988700;28;20050;-79
2022/08/25 09:19:24;;;;;;;5.72;2.50;;;29.10;97.10;;;;;;4911386;29;20059;-73
2022/08/25 09:22:01;;;;;;;10.48;2.80;;;29.10;96.60;;;;;;4894899;29;20538;-73
2022/08/25 09:25:14;;;;;;;8.95;2.33;;;29.20;95.80;;;;;;4911719;29;20052;-72
2022/08/25 09:27:58;;;;;;;5.15;2.25;;;29.40;96.40;;;;;;4855495;29;20485;-73
2022/08/25 09:30:23;;;;;;;5.70;2.15;;;29.70;95.50;;;;;;4855502;29;20042;-74
2022/08/25 09:33:02;;;;;;;12.35;2.50;;;29.70;95.90;;;;;;4892625;29;20071;-73
2022/08/25 09:35:30;;;;;;;9.38;2.70;;;29.80;95.10;;;;;;4911174;29;20087;-72
2022/08/25 09:37:58;;;;;;;8.30;2.50;;;30.10;94.80;;;;;;4911180;29;20088;-73
2022/08/25 09:40:25;;;;;;;4.40;2.30;;;30.20;94.80;;;;;;4911504;29;20084;-73
2022/08/25 09:42:55;;;;;;;6.45;2.55;;;30.20;94.90;;;;;;4911309;29;20052;-71
2022/08/25 09:45:42;;;;;;;8.63;2.08;;;30.40;94.70;;;;;;4911193;29;20080;-74
2022/08/25 09:48:42;;;;;;;9.10;2.50;;;30.50;94.00;;;;;;4911105;29;20064;-71
2022/08/25 09:51:31;;;;;;;3.53;2.00;;;30.60;93.30;;;;;;4910729;29;20054;-73
2022/08/25 09:54:03;;;;;;;5.80;1.92;;;30.80;93.30;;;;;;4930631;28;20410;-71
2022/08/25 09:56:32;;;;;;;4.05;2.13;;;30.80;93.20;;;;;;4988414;28;20457;-72
2022/08/25 09:59:19;;;;;;;10.07;2.15;;;30.90;92.50;;;;;;5061074;28;20083;-72
2022/08/25 10:01:54;;;;;;;9.93;2.05;;;31.00;92.50;;;;;;5090196;28;20479;-71
2022/08/25 10:04:26;;;;;;;9.18;1.85;;;31.10;91.60;;;;;;5090113;28;20040;-80
2022/08/25 10:06:52;;;;;;;7.22;2.13;;;31.00;91.10;;;;;;5089775;28;20569;-72
2022/08/25 10:09:25;;;;;;;10.73;2.33;;;31.10;91.20;;;;;;5089590;28;20135;-82
2022/08/25 10:11:51;;;;;;;6.07;2.17;;;31.30;90.70;;;;;;5090156;28;20039;-75
2022/08/25 10:14:26;;;;;;;8.45;2.10;;;31.30;90.90;;;;;;5071702;28;20395;-80
2022/08/25 10:17:28;;;;;;;6.68;2.13;;;31.30;90.10;;;;;;5089963;28;20048;-79
2022/08/25 10:20:19;;;;;;;4.10;1.85;;;31.40;89.70;;;;;;5071612;28;20048;-74
2022/08/25 10:22:46;;;;;;;8.48;1.90;;;31.40;90.20;;;;;;5089650;28;20043;-75
2022/08/25 10:25:17;;;;;;;7.45;2.13;;;31.50;89.80;;;;;;5089716;28;20135;-76
2022/08/25 10:28:00;;;;;;;6.60;1.88;;;31.60;88.60;;;;;;5071627;28;20483;-77
2022/08/25 10:30:35;;;;;;;6.80;2.20;;;31.80;89.40;;;;;;5089561;28;20051;-75
2022/08/25 10:33:23;;;;;;;5.65;1.75;;;31.90;87.40;;;;;;5093373;28;20394;-77
2022/08/25 10:36:10;;;;;;;4.03;1.83;;;31.90;86.00;;;;;;5093725;28;20258;-74
2022/08/25 10:38:57;;;;;;;3.85;1.70;;;31.90;85.60;;;;;;5093340;28;20087;-84
2022/08/25 10:41:41;;;;;;;6.18;1.88;;;32.00;86.90;;;;;;5075401;28;20036;-76
2022/08/25 10:47:34;;;;;;;5.28;1.80;;;32.30;85.30;;;;;;5074991;28;20106;-76
2022/08/25 10:50:12;;;;;;;6.45;1.50;;;32.40;83.40;;;;;;5075590;28;20060;-78
2022/08/25 10:53:04;;;;;;;4.10;1.98;;;32.50;82.60;;;;;;5093281;28;20068;-76
2022/08/25 10:55:48;;;;;;;6.72;1.90;;;32.70;83.90;;;;;;5092879;28;20494;-75
2022/08/25 10:58:22;;;;;;;;;;;32.80;83.60;;;;;;5093672;28;20498;-74
2022/08/25 11:00:58;;;;;;;;;;;32.80;83.50;;;;;;5070631;28;20018;-72
2022/08/25 11:03:38;;;;;;;6.57;1.70;;;32.70;82.00;;;;;;5071061;28;19931;-76
2022/08/25 11:06:11;;;;;;;9.05;2.10;;;32.70;82.60;;;;;;5034782;28;20061;-77
2022/08/25 11:08:41;;;;;;;3.90;1.70;;;32.80;82.10;;;;;;5052868;28;20137;-79
2022/08/25 11:11:20;;;;;;;6.10;2.08;;;33.00;83.20;;;;;;5052476;28;20635;-78
2022/08/25 11:13:55;;;;;;;8.25;1.90;;;33.10;81.20;;;;;;5052650;28;20133;-82
2022/08/25 11:16:38;;;;;;;8.43;2.00;;;33.00;81.00;;;;;;5052657;28;20041;-75
2022/08/25 11:19:26;;;;;;;2.60;1.50;;;33.00;80.80;;;;;;5053669;28;20044;-76
2022/08/25 11:22:18;;;;;;;6.45;1.85;;;33.10;81.20;;;;;;5052447;28;20108;-74
2022/08/25 11:24:44;;;;;;;5.40;2.00;;;33.10;80.70;;;;;;5051690;28;20512;-78
2022/08/25 11:27:19;;;;;;;4.00;1.58;;;33.30;80.60;;;;;;5052090;28;20083;-78
2022/08/25 11:29:56;;;;;;;3.83;1.63;;;33.20;80.20;;;;;;5052581;28;20033;-75
2022/08/25 11:32:23;;;;;;;5.70;2.05;;;33.40;80.20;;;;;;5034744;28;20084;-75
2022/08/25 11:34:51;;;;;;;6.63;1.95;;;33.50;80.50;;;;;;5053555;28;20131;-74
2022/08/25 11:37:26;;;;;;;5.50;1.58;;;33.50;79.90;;;;;;5052257;28;20055;-74
2022/08/25 11:40:17;;;;;;;7.88;1.83;;;33.60;79.40;;;;;;5052407;28;20048;-77
2022/08/25 11:42:54;;;;;;;7.03;1.75;;;33.50;78.00;;;;;;5056976;28;20057;-72
2022/08/25 11:45:41;;;;;;;12.68;2.05;;;33.50;78.30;;;;;;5052201;28;20120;-71
2022/08/25 11:48:20;;;;;;;4.63;1.70;;;33.50;77.40;;;;;;5058535;28;20113;-71
2022/08/25 11:51:06;;;;;;;6.50;1.60;;;33.50;77.60;;;;;;5088454;28;20048;-74
2022/08/25 11:53:41;;;;;;;2.85;1.40;;;33.50;75.70;;;;;;5079039;28;20048;-72
2022/08/25 11:56:35;;;;;;;4.65;2.08;;;33.60;75.90;;;;;;5051888;28;20090;-79
2022/08/25 11:59:00;;;;;;;5.43;1.75;;;33.60;75.30;;;;;;5034744;28;20084;-76
2022/08/25 12:01:38;;;;;;;3.35;1.48;;;33.50;75.50;;;;;;5052034;28;20095;-74
2022/08/25 12:04:13;;;;;;;3.10;1.50;;;33.50;75.60;;;;;;5052216;28;20432;-72
2022/08/25 12:07:04;;;;;;;4.22;1.65;;;33.50;75.90;;;;;;5034069;28;20053;-77
2022/08/25 12:09:31;;;;;;;7.40;1.90;;;33.60;75.70;;;;;;5052663;28;20053;-73
2022/08/25 12:11:57;;;;;;;4.60;2.00;;;33.60;75.90;;;;;;5051643;28;20055;-72
2022/08/25 12:14:23;;;;;;;5.43;1.60;;;33.70;76.30;;;;;;5051322;28;20037;-74
2022/08/25 12:16:55;;;;;;;6.25;1.85;;;33.80;76.20;;;;;;5051636;28;20518;-72
2022/08/25 12:19:36;;;;;;;6.57;1.88;;;33.80;75.30;;;;;;5052633;28;20535;-73
2022/08/25 12:22:01;;;;;;;6.97;1.90;;;34.00;74.10;;;;;;5051733;28;20048;-72
2022/08/25 12:24:42;;;;;;;6.53;1.98;;;33.90;75.00;;;;;;5051152;28;20056;-72
2022/08/25 12:27:28;;;;;;;5.72;1.92;;;34.00;74.70;;;;;;5033334;28;20060;-78
2022/08/25 12:29:56;;;;;;;4.43;1.98;;;34.00;73.60;;;;;;5052032;28;20033;-73
2022/08/25 12:32:57;;;;;;;5.72;1.80;;;34.00;74.20;;;;;;5036610;28;20151;-71
2022/08/25 12:35:31;;;;;;;5.45;1.83;;;34.00;73.70;;;;;;5091810;28;20048;-74
2022/08/25 12:37:56;;;;;;;;;;;34.00;73.20;;;;;;5056069;28;20452;-77
2022/08/25 12:40:25;;;;;;;5.32;1.70;;;34.10;73.10;;;;;;5051240;28;20015;-72
2022/08/25 12:43:02;;;;;;;4.72;1.70;;;34.20;73.90;;;;;;5051263;28;20049;-74
2022/08/25 12:45:41;;;;;;;5.35;1.50;;;34.30;74.00;;;;;;5050820;28;20164;-72
2022/08/25 12:48:25;;;;;;;4.25;1.50;;;34.40;71.60;;;;;;5034400;28;20036;-73
2022/08/25 12:50:59;;;;;;;5.22;1.83;;;34.40;71.80;;;;;;5050666;28;20070;-73
2022/08/25 12:53:34;;;;;;;5.90;1.80;;;34.40;70.90;;;;;;5050864;28;20048;-77
2022/08/25 12:56:06;;;;;;;5.10;2.08;;;34.30;70.60;;;;;;5050711;28;20049;-80
2022/08/25 12:59:11;;;;;;;4.07;1.80;;;34.30;71.00;;;;;;5052085;28;20082;-78
2022/08/25 13:01:49;;;;;;;10.40;2.10;;;34.30;71.20;;;;;;5050539;28;20559;-76
2022/08/25 13:04:32;;;;;;;4.68;1.73;;;34.30;70.80;;;;;;5057377;28;20448;-84
2022/08/25 13:07:19;;;;;;;5.75;1.80;;;34.40;70.90;;;;;;5081821;28;20063;-78
2022/08/25 13:10:12;;;;;;;5.72;1.70;;;34.40;71.10;;;;;;5050621;28;20122;-76